Saint Mary, Montana
Current Conditions -  °F | °C
As of 1:56 AM on Sunday 23 Nov 2014 (Local Time) from KCTB Reporting Station
Few Clouds Few Clouds  
Wind Chill: 16°   Ceiling: Unl
Heat Index: 27°   Visibility: 10mi
Dew Point: 19°   Wind: 13mph
Humidity: 72%   Direction: 280°W
Pressure: 29.71"   Gusts: NA
Location:  48.5484°N, 112.952°W
Report Text: KCTB 230856Z AUTO 28011KT 10SM FEW085 M03/M07 A2971 RMK AO2 SLP081 T10281072 51032
Loading
Personal Weather Stations






























Interactive Weather Map New forecast layout! Learn more

10-Day Weather Forecast

Advertisements
Track Severe Weather on mobile